createdAt,value
2019-01-16T00:02:06.674Z,3.75
2019-01-16T00:04:45.877Z,2.85
2019-01-16T00:07:31.134Z,3.20
2019-01-16T00:10:06.988Z,3.90
2019-01-16T00:12:40.263Z,3.30
2019-01-16T00:15:10.679Z,3.15
2019-01-16T00:17:47.131Z,3.90
2019-01-16T00:20:17.311Z,3.20
2019-01-16T00:22:56.463Z,3.25
2019-01-16T00:25:41.797Z,2.70
2019-01-16T00:28:12.012Z,3.08
2019-01-16T00:30:42.271Z,2.62
2019-01-16T00:33:28.684Z,3.55
2019-01-16T00:35:58.869Z,2.72
2019-01-16T00:38:45.351Z,3.17
2019-01-16T00:41:27.582Z,3.15
2019-01-16T00:43:57.780Z,3.00
2019-01-16T00:46:30.717Z,3.10
2019-01-16T00:49:16.104Z,3.15
2019-01-16T00:51:46.279Z,3.52
2019-01-16T00:54:19.064Z,4.00
2019-01-16T00:57:05.700Z,5.33
2019-01-16T00:59:45.159Z,5.15
2019-01-16T01:02:31.568Z,3.98
2019-01-16T01:05:04.896Z,3.60
2019-01-16T01:07:35.243Z,3.55
2019-01-16T01:10:24.540Z,3.20
2019-01-16T01:12:57.972Z,3.47
2019-01-16T01:15:28.303Z,3.42
2019-01-16T01:18:07.358Z,2.83
2019-01-16T01:20:37.542Z,3.02
2019-01-16T01:23:10.515Z,2.85
2019-01-16T01:25:43.868Z,3.17
2019-01-16T01:28:19.980Z,2.80
2019-01-16T01:30:59.521Z,2.90
2019-01-16T01:33:29.770Z,2.67
2019-01-16T01:36:08.967Z,3.02
2019-01-16T01:38:39.218Z,3.37
2019-01-16T01:41:09.506Z,2.60
2019-01-16T01:43:48.308Z,2.90
2019-01-16T01:46:24.020Z,3.20
2019-01-16T01:49:02.823Z,3.08
2019-01-16T01:51:36.063Z,2.75
2019-01-16T01:54:15.355Z,3.90
2019-01-16T01:56:51.207Z,2.27
2019-01-16T01:59:33.365Z,2.60
2019-01-16T02:02:18.955Z,2.55
2019-01-16T02:04:57.792Z,2.83
2019-01-16T02:07:27.990Z,2.60
2019-01-16T02:10:04.324Z,3.27
2019-01-16T02:12:37.352Z,2.85
2019-01-16T02:15:19.845Z,3.25
2019-01-16T02:18:08.490Z,2.95
2019-01-16T02:20:47.294Z,2.70
2019-01-16T02:23:17.918Z,2.72
2019-01-16T02:25:48.154Z,3.08
2019-01-16T02:28:18.319Z,2.35
2019-01-16T02:30:51.419Z,2.40
2019-01-16T02:33:38.123Z,2.75
2019-01-16T02:36:08.406Z,2.55
2019-01-16T02:38:41.620Z,2.50
2019-01-16T02:41:28.660Z,3.27
2019-01-16T02:44:10.610Z,3.02
2019-01-16T02:46:46.891Z,2.45
2019-01-16T02:49:29.273Z,2.95
2019-01-16T02:51:59.560Z,2.95
2019-01-16T02:54:44.770Z,2.85
2019-01-16T02:57:17.600Z,2.67
2019-01-16T02:59:53.571Z,2.58
2019-01-16T03:02:26.554Z,2.85
2019-01-16T03:04:56.744Z,2.58
2019-01-16T03:07:26.997Z,2.02
2019-01-16T03:09:57.267Z,2.55
2019-01-16T03:12:27.511Z,3.12
2019-01-16T03:15:00.413Z,2.70
2019-01-16T03:17:46.839Z,2.80
2019-01-16T03:20:33.606Z,2.25
2019-01-16T03:23:16.062Z,2.60
2019-01-16T03:25:46.337Z,2.00
2019-01-16T03:28:16.504Z,2.40
2019-01-16T03:30:55.737Z,2.75
2019-01-16T03:33:28.459Z,2.75
2019-01-16T03:35:58.718Z,2.42
2019-01-16T03:38:38.232Z,1.60
2019-01-16T03:41:09.549Z,2.72
2019-01-16T03:43:40.593Z,1.90
2019-01-16T03:46:10.865Z,2.47
2019-01-16T03:48:41.207Z,2.17
2019-01-16T03:51:11.474Z,2.25
2019-01-16T03:53:41.692Z,1.98
2019-01-16T03:56:28.283Z,2.08
2019-01-16T03:59:04.330Z,1.85
2019-01-16T04:01:40.566Z,1.77
2019-01-16T04:04:16.375Z,1.82
2019-01-16T04:07:01.733Z,2.72
2019-01-16T04:09:34.510Z,1.90
2019-01-16T04:12:21.321Z,2.25
2019-01-16T04:14:51.516Z,2.35
2019-01-16T04:17:21.706Z,2.37
2019-01-16T04:20:04.024Z,2.25
2019-01-16T04:22:39.954Z,1.90
2019-01-16T04:25:12.987Z,1.90
2019-01-16T04:27:52.045Z,2.08
2019-01-16T04:30:34.179Z,2.10
2019-01-16T04:33:09.941Z,1.70
2019-01-16T04:35:46.147Z,1.80
2019-01-16T04:38:16.340Z,1.75
2019-01-16T04:40:49.566Z,1.95
2019-01-16T04:43:19.816Z,2.15
2019-01-16T04:46:01.861Z,2.15
2019-01-16T04:48:50.475Z,2.25
2019-01-16T04:51:20.747Z,2.00
2019-01-16T04:53:56.763Z,1.87
2019-01-16T04:56:32.853Z,2.10
2019-01-16T04:59:18.192Z,2.40
2019-01-16T05:02:03.543Z,2.25
2019-01-16T05:04:49.924Z,3.20
2019-01-16T05:07:26.047Z,2.10
2019-01-16T05:09:56.314Z,1.85
2019-01-16T05:12:26.516Z,2.45
2019-01-16T05:14:59.130Z,2.90
2019-01-16T05:17:32.172Z,2.80
2019-01-16T05:20:05.565Z,2.20
2019-01-16T05:22:38.556Z,2.12
2019-01-16T05:25:08.879Z,1.92
2019-01-16T05:27:45.100Z,2.45
2019-01-16T05:30:33.836Z,2.37
2019-01-16T05:33:09.823Z,2.30
2019-01-16T05:35:42.991Z,2.37
2019-01-16T05:38:29.303Z,2.30
2019-01-16T05:41:08.525Z,2.80
2019-01-16T05:43:47.948Z,2.20
2019-01-16T05:46:21.081Z,2.30
2019-01-16T05:49:00.091Z,2.15
2019-01-16T05:51:30.342Z,3.00
2019-01-16T05:54:17.095Z,2.80
2019-01-16T05:56:47.283Z,2.80
2019-01-16T05:59:33.402Z,2.72
2019-01-16T06:02:20.144Z,3.15
2019-01-16T06:04:50.422Z,3.12
2019-01-16T06:07:32.285Z,3.10
2019-01-16T06:10:02.556Z,3.20
2019-01-16T06:12:32.727Z,2.42
2019-01-16T06:15:20.994Z,3.00
2019-01-16T06:17:54.087Z,3.22
2019-01-16T06:20:39.753Z,3.15
2019-01-16T06:23:26.429Z,2.45
2019-01-16T06:25:59.499Z,2.67
2019-01-16T06:28:45.836Z,2.92
2019-01-16T06:31:18.703Z,3.95
2019-01-16T06:34:00.789Z,4.20
2019-01-16T06:36:34.070Z,4.87
2019-01-16T06:39:19.564Z,4.95
2019-01-16T06:41:55.494Z,4.20
2019-01-16T06:44:34.896Z,4.12
2019-01-16T06:47:17.199Z,3.80
2019-01-16T06:49:50.104Z,4.37
2019-01-16T06:52:20.288Z,4.30
2019-01-16T06:54:56.455Z,3.95
2019-01-16T06:57:26.640Z,3.80
2019-01-16T06:59:56.921Z,4.47
2019-01-16T07:02:27.103Z,3.77
2019-01-16T07:04:57.378Z,3.00
2019-01-16T07:07:39.591Z,3.10
2019-01-16T07:10:17.284Z,2.80
2019-01-16T07:12:47.482Z,3.98
2019-01-16T07:15:17.732Z,2.75
2019-01-16T07:18:04.200Z,2.67
2019-01-16T07:20:34.455Z,3.00
2019-01-16T07:23:07.462Z,2.98
2019-01-16T07:25:40.478Z,3.02
2019-01-16T07:28:10.754Z,3.17
2019-01-16T07:30:41.075Z,2.55
2019-01-16T07:33:11.283Z,4.08
2019-01-16T07:35:58.104Z,3.08
2019-01-16T07:38:33.859Z,4.42
2019-01-16T07:41:04.068Z,4.58
2019-01-16T07:43:40.128Z,4.75
2019-01-16T07:46:12.825Z,4.70
2019-01-16T07:48:55.006Z,4.58
2019-01-16T07:51:34.187Z,4.10
2019-01-16T07:54:16.607Z,3.95
2019-01-16T07:56:46.820Z,3.35
2019-01-16T07:59:23.016Z,4.33
2019-01-16T08:01:56.207Z,3.92
2019-01-16T08:04:26.385Z,3.87
2019-01-16T08:07:02.388Z,4.00
2019-01-16T08:09:41.850Z,4.22
2019-01-16T08:12:12.047Z,4.00
2019-01-16T08:15:00.464Z,4.35
2019-01-16T08:17:39.502Z,3.33
2019-01-16T08:20:27.108Z,4.05
2019-01-16T08:22:57.299Z,3.62
2019-01-16T08:25:33.370Z,3.70
2019-01-16T08:28:03.561Z,4.17
2019-01-16T08:30:33.811Z,4.05
2019-01-16T08:33:06.988Z,4.33
2019-01-16T08:35:40.139Z,3.65
2019-01-16T08:38:26.720Z,3.08
2019-01-16T08:40:56.990Z,3.75
2019-01-16T08:43:27.239Z,3.30
2019-01-16T08:46:15.203Z,4.17
2019-01-16T08:49:01.559Z,2.85
2019-01-16T08:51:34.521Z,3.62
2019-01-16T08:54:13.627Z,3.65
2019-01-16T08:56:49.497Z,2.90
2019-01-16T08:59:25.912Z,3.02
2019-01-16T09:02:08.030Z,2.98
2019-01-16T09:04:54.679Z,3.27
2019-01-16T09:07:24.951Z,3.35
2019-01-16T09:10:13.101Z,3.00
2019-01-16T09:12:52.331Z,3.47
2019-01-16T09:15:38.975Z,3.75
2019-01-16T09:18:15.095Z,3.47
2019-01-16T09:20:45.274Z,3.75
2019-01-16T09:23:24.401Z,2.87
2019-01-16T09:25:54.579Z,3.83
2019-01-16T09:28:30.670Z,3.30
2019-01-16T09:31:16.059Z,2.85
2019-01-16T09:33:46.331Z,3.45
2019-01-16T09:36:16.582Z,2.87
2019-01-16T09:39:01.963Z,3.08
2019-01-16T09:41:41.169Z,3.80
2019-01-16T09:44:17.239Z,3.47
2019-01-16T09:46:47.583Z,3.05
2019-01-16T09:49:34.460Z,2.72
2019-01-16T09:52:07.384Z,2.92
2019-01-16T09:54:37.721Z,3.20
2019-01-16T09:57:37.409Z,3.62
2019-01-16T10:00:13.456Z,2.50
2019-01-16T10:02:52.686Z,3.08
2019-01-16T10:05:25.999Z,3.25
2019-01-16T10:07:59.235Z,3.75
2019-01-16T10:10:44.477Z,3.40
2019-01-16T10:13:23.726Z,3.83
2019-01-16T10:16:09.102Z,3.00
2019-01-16T10:18:44.955Z,3.55
2019-01-16T10:21:21.554Z,3.72
2019-01-16T10:24:00.714Z,4.97
2019-01-16T10:26:45.892Z,5.47
2019-01-16T10:29:18.828Z,4.67
2019-01-16T10:31:55.086Z,3.58
2019-01-16T10:34:41.540Z,4.05
2019-01-16T10:37:17.806Z,4.28
2019-01-16T10:40:00.324Z,5.17
2019-01-16T10:42:42.535Z,3.77
2019-01-16T10:45:21.887Z,4.90
2019-01-16T10:48:01.087Z,4.70
2019-01-16T10:50:31.431Z,4.80
2019-01-16T10:53:07.767Z,4.37
2019-01-16T10:55:40.675Z,5.10
2019-01-16T10:58:29.062Z,5.33
2019-01-16T11:01:15.530Z,5.30
2019-01-16T11:04:00.866Z,5.30
2019-01-16T11:06:46.165Z,4.90
2019-01-16T11:09:28.357Z,6.93
2019-01-16T11:12:01.383Z,6.00
2019-01-16T11:14:43.879Z,5.90
2019-01-16T11:17:29.518Z,4.63
2019-01-16T11:20:02.387Z,3.87
2019-01-16T11:22:32.568Z,6.03
2019-01-16T11:25:19.148Z,4.10
2019-01-16T11:27:58.087Z,3.70
2019-01-16T11:30:28.287Z,4.60
2019-01-16T11:33:14.739Z,3.20
2019-01-16T11:35:44.943Z,3.60
2019-01-16T11:38:20.843Z,3.87
2019-01-16T11:40:53.639Z,3.70
2019-01-16T11:43:26.350Z,4.03
2019-01-16T11:46:11.860Z,3.73
2019-01-16T11:48:44.703Z,3.90
2019-01-16T11:51:18.973Z,4.60
2019-01-16T11:53:49.395Z,4.60
2019-01-16T11:56:25.556Z,4.27
2019-01-16T11:58:55.808Z,3.50
2019-01-16T12:01:26.064Z,4.47
2019-01-16T12:03:56.322Z,4.87
2019-01-16T12:06:32.135Z,4.00
2019-01-16T12:09:14.384Z,3.50
2019-01-16T12:11:47.762Z,3.50
2019-01-16T12:14:20.699Z,3.00
2019-01-16T12:17:07.081Z,3.60
2019-01-16T12:19:49.293Z,3.43
2019-01-16T12:22:19.467Z,3.73
2019-01-16T12:24:49.718Z,2.87
2019-01-16T12:27:36.235Z,3.50
2019-01-16T12:30:21.468Z,2.40
2019-01-16T12:32:54.360Z,3.90
2019-01-16T12:35:24.616Z,2.90
2019-01-16T12:38:01.009Z,2.10
2019-01-16T12:40:31.256Z,3.17
2019-01-16T12:43:19.834Z,3.00
2019-01-16T12:45:59.348Z,2.70
2019-01-16T12:48:38.735Z,3.43
2019-01-16T12:51:08.990Z,4.63
2019-01-16T12:53:55.629Z,3.03
2019-01-16T12:56:42.384Z,3.23
2019-01-16T12:59:29.035Z,3.67
2019-01-16T13:01:59.367Z,3.27
2019-01-16T13:04:29.688Z,3.07
2019-01-16T13:07:02.727Z,3.40
2019-01-16T13:09:32.909Z,3.40
2019-01-16T13:12:09.079Z,3.60
2019-01-16T13:14:39.327Z,4.77
2019-01-16T13:17:15.190Z,3.43
2019-01-16T13:19:45.370Z,4.27
2019-01-16T13:22:21.844Z,3.53
2019-01-16T13:24:54.484Z,3.60
2019-01-16T13:27:24.716Z,3.93
2019-01-16T13:29:55.004Z,4.03
2019-01-16T13:32:25.256Z,5.00
2019-01-16T13:35:01.414Z,5.13
2019-01-16T13:37:47.896Z,4.10
2019-01-16T13:40:24.123Z,4.23
2019-01-16T13:43:12.498Z,3.97
2019-01-16T13:45:51.762Z,3.03
2019-01-16T13:48:38.602Z,3.57
2019-01-16T13:51:11.862Z,4.20
2019-01-16T13:53:54.176Z,3.27
2019-01-16T13:56:39.711Z,1.90
2019-01-16T13:59:22.272Z,2.40
2019-01-16T14:01:52.605Z,2.70
2019-01-16T14:04:28.615Z,2.60
2019-01-16T14:06:58.830Z,3.00
2019-01-16T14:09:41.076Z,2.20
2019-01-16T14:12:11.416Z,2.73
2019-01-16T14:14:53.759Z,2.70
2019-01-16T14:17:36.070Z,3.53
2019-01-16T14:20:09.335Z,2.80
2019-01-16T14:22:56.189Z,3.60
2019-01-16T14:25:44.728Z,2.30
2019-01-16T14:28:31.299Z,3.33
2019-01-16T14:31:01.614Z,5.13
2019-01-16T14:33:48.033Z,4.30
2019-01-16T14:36:21.109Z,3.57
2019-01-16T14:39:07.382Z,3.50
2019-01-16T14:41:37.640Z,3.60
2019-01-16T14:44:10.863Z,4.10
2019-01-16T14:46:44.451Z,4.10
2019-01-16T14:49:14.767Z,4.10
2019-01-16T14:51:45.303Z,5.03
2019-01-16T14:54:15.637Z,3.85
2019-01-16T14:57:02.595Z,5.15
2019-01-16T14:59:35.441Z,4.95
2019-01-16T15:02:21.422Z,5.03
2019-01-16T15:04:57.343Z,4.80
2019-01-16T15:07:27.556Z,3.83
2019-01-16T15:09:57.735Z,5.05
2019-01-16T15:12:28.050Z,4.17
2019-01-16T15:15:13.584Z,4.50
2019-01-16T15:17:46.298Z,4.58
2019-01-16T15:20:31.923Z,4.25
2019-01-16T15:23:14.206Z,4.17
2019-01-16T15:25:59.445Z,4.90
2019-01-16T15:28:45.738Z,5.28
2019-01-16T15:31:18.779Z,4.30
2019-01-16T15:33:58.368Z,4.42
2019-01-16T15:36:31.418Z,3.50
2019-01-16T15:39:01.951Z,4.60
2019-01-16T15:41:33.017Z,4.70
2019-01-16T15:44:03.464Z,4.60
2019-01-16T15:46:33.872Z,4.30
2019-01-16T15:49:04.147Z,3.92
2019-01-16T15:51:46.616Z,4.50
2019-01-16T15:54:23.958Z,4.30
2019-01-16T15:56:54.396Z,4.05
2019-01-16T15:59:24.739Z,3.85
2019-01-16T16:02:11.342Z,3.62
2019-01-16T16:04:44.270Z,3.20
2019-01-16T16:07:30.272Z,4.25
2019-01-16T16:10:12.793Z,4.05
2019-01-16T16:12:45.823Z,6.80
2019-01-16T16:15:16.577Z,4.33
2019-01-16T16:17:49.537Z,5.17
2019-01-16T16:20:36.311Z,4.83
2019-01-16T16:23:06.631Z,5.78
2019-01-16T16:25:36.807Z,11.08
2019-01-16T16:28:07.363Z,14.18
2019-01-16T16:30:46.421Z,8.00
2019-01-16T16:33:19.575Z,9.15
2019-01-16T16:36:02.151Z,5.62
2019-01-16T16:38:47.388Z,7.67
2019-01-16T16:41:29.183Z,6.58
2019-01-16T16:43:59.423Z,8.80
2019-01-16T16:46:38.709Z,5.47
2019-01-16T16:49:09.055Z,7.45
2019-01-16T16:51:54.319Z,7.65
2019-01-16T16:54:37.206Z,9.05
2019-01-16T16:57:10.355Z,6.47
2019-01-16T16:59:40.559Z,8.58
2019-01-16T17:02:10.941Z,8.70
2019-01-16T17:04:41.116Z,6.85
2019-01-16T17:07:11.307Z,5.67
2019-01-16T17:09:41.564Z,6.12
2019-01-16T17:12:11.754Z,5.70
2019-01-16T17:14:44.474Z,7.72
2019-01-16T17:17:17.235Z,8.00
2019-01-16T17:20:03.482Z,8.03
2019-01-16T17:22:33.823Z,9.30
2019-01-16T17:25:06.828Z,9.03
2019-01-16T17:27:42.830Z,8.48
2019-01-16T17:30:33.132Z,8.25
2019-01-16T17:33:03.401Z,7.75
2019-01-16T17:35:36.455Z,7.95
2019-01-16T17:38:18.693Z,7.92
2019-01-16T17:40:58.207Z,7.15
2019-01-16T17:43:34.170Z,9.15
2019-01-16T17:46:04.353Z,7.33
2019-01-16T17:48:49.407Z,7.28
2019-01-16T17:51:35.104Z,7.78
2019-01-16T17:54:22.464Z,7.97
2019-01-16T17:57:01.696Z,6.37
2019-01-16T17:59:31.964Z,8.13
2019-01-16T18:02:05.087Z,6.33
2019-01-16T18:04:37.539Z,5.25
2019-01-16T18:07:10.549Z,5.33
2019-01-16T18:09:58.733Z,6.95
2019-01-16T18:12:29.006Z,6.42
2019-01-16T18:15:17.661Z,5.45
2019-01-16T18:17:56.998Z,6.55
2019-01-16T18:20:39.083Z,5.20
2019-01-16T18:23:12.016Z,5.62
2019-01-16T18:26:00.484Z,5.30
2019-01-16T18:28:42.780Z,5.70
2019-01-16T18:31:29.534Z,6.12
2019-01-16T18:34:14.908Z,6.20
2019-01-16T18:36:45.099Z,6.10
2019-01-16T18:39:24.463Z,7.80
2019-01-16T18:42:11.249Z,6.65
2019-01-16T18:44:44.240Z,8.00
2019-01-16T18:47:26.513Z,7.65
2019-01-16T18:50:02.639Z,6.70
2019-01-16T18:52:51.872Z,6.40
2019-01-16T18:55:37.962Z,6.40
2019-01-16T18:58:17.195Z,6.12
2019-01-16T19:00:53.597Z,5.42
2019-01-16T19:03:39.692Z,5.40
2019-01-16T19:06:22.008Z,5.97
2019-01-16T19:08:55.543Z,5.47
2019-01-16T19:11:34.443Z,4.75
2019-01-16T19:14:04.767Z,5.03
2019-01-16T19:16:40.874Z,5.95
2019-01-16T19:19:26.071Z,5.25
2019-01-16T19:21:59.159Z,4.35
2019-01-16T19:24:29.349Z,4.55
2019-01-16T19:27:05.138Z,7.90
2019-01-16T19:29:51.560Z,5.20
2019-01-16T19:32:21.835Z,4.95
2019-01-16T19:34:54.754Z,4.97
2019-01-16T19:37:34.123Z,4.53
2019-01-16T19:40:15.973Z,4.87
2019-01-16T19:43:00.544Z,4.25
2019-01-16T19:45:36.566Z,4.30
2019-01-16T19:48:11.858Z,4.30
2019-01-16T19:50:44.215Z,3.65
2019-01-16T19:53:31.609Z,4.40
2019-01-16T19:56:03.932Z,3.98
2019-01-16T19:58:36.980Z,3.92
2019-01-16T20:01:11.854Z,4.28
2019-01-16T20:03:47.503Z,4.70
2019-01-16T20:06:35.339Z,4.65
2019-01-16T20:09:19.995Z,3.90
2019-01-16T20:12:04.237Z,3.70
2019-01-16T20:14:35.896Z,4.50
2019-01-16T20:17:09.049Z,7.30
2019-01-16T20:19:53.118Z,4.83
2019-01-16T20:22:36.049Z,5.67
2019-01-16T20:25:20.214Z,7.15
2019-01-16T20:27:50.414Z,6.37
2019-01-16T20:30:41.690Z,5.95
2019-01-16T20:33:16.099Z,5.95
2019-01-16T20:35:51.439Z,5.55
2019-01-16T20:38:23.848Z,6.00
2019-01-16T20:41:02.813Z,6.92
2019-01-16T20:43:35.752Z,6.40
2019-01-16T20:46:08.316Z,6.03
2019-01-16T20:48:41.411Z,6.12
2019-01-16T20:51:14.138Z,6.60
2019-01-16T20:53:46.326Z,5.53
2019-01-16T20:56:24.549Z,5.85
2019-01-16T20:59:13.664Z,5.15
2019-01-16T21:01:49.059Z,6.33
2019-01-16T21:04:29.495Z,5.20
2019-01-16T21:07:02.478Z,5.53
2019-01-16T21:09:42.147Z,5.80
2019-01-16T21:12:15.026Z,6.10
2019-01-16T21:14:52.190Z,4.92
2019-01-16T21:17:40.665Z,6.00
2019-01-16T21:20:13.692Z,6.12
2019-01-16T21:22:46.642Z,6.22
2019-01-16T21:25:34.229Z,6.80
2019-01-16T21:28:11.982Z,6.72
2019-01-16T21:30:50.707Z,8.70
2019-01-16T21:33:41.669Z,7.85
2019-01-16T21:36:16.948Z,7.17
2019-01-16T21:38:58.646Z,6.78
2019-01-16T21:41:33.578Z,5.80
2019-01-16T21:44:21.804Z,7.80
2019-01-16T21:46:55.397Z,7.90
2019-01-16T21:49:37.108Z,8.08
2019-01-16T21:52:18.403Z,8.93
2019-01-16T21:54:51.343Z,8.18
2019-01-16T21:57:35.734Z,7.92
2019-01-16T22:00:10.350Z,7.50
2019-01-16T22:02:54.722Z,6.53
2019-01-16T22:05:27.274Z,6.30
2019-01-16T22:08:17.587Z,4.83
2019-01-16T22:10:49.681Z,6.50
2019-01-16T22:13:24.112Z,6.30
2019-01-16T22:16:11.659Z,7.55
2019-01-16T22:18:44.192Z,5.28
2019-01-16T22:21:20.448Z,5.22
2019-01-16T22:24:08.400Z,4.80
2019-01-16T22:26:58.883Z,5.65
2019-01-16T22:29:30.992Z,4.97
2019-01-16T22:32:06.789Z,5.00
2019-01-16T22:34:55.499Z,4.92
2019-01-16T22:37:40.143Z,5.17
2019-01-16T22:40:16.552Z,4.87
2019-01-16T22:42:51.800Z,4.70
2019-01-16T22:45:41.219Z,4.40
2019-01-16T22:48:13.388Z,4.85
2019-01-16T22:50:51.714Z,4.50
2019-01-16T22:53:33.990Z,5.10
2019-01-16T22:56:10.339Z,5.40
2019-01-16T22:58:42.243Z,4.35
2019-01-16T23:01:19.077Z,4.67
2019-01-16T23:04:00.888Z,4.83
2019-01-16T23:06:51.617Z,4.85
2019-01-16T23:09:33.476Z,4.70
2019-01-16T23:12:23.199Z,4.95
2019-01-16T23:14:55.637Z,5.28
2019-01-16T23:17:39.722Z,4.55
2019-01-16T23:20:13.179Z,4.35
2019-01-16T23:22:48.141Z,4.12
2019-01-16T23:25:21.108Z,4.92
2019-01-16T23:28:02.340Z,5.20
2019-01-16T23:30:47.406Z,5.00
2019-01-16T23:33:24.610Z,5.28
2019-01-16T23:36:15.570Z,4.62
2019-01-16T23:38:47.247Z,4.95
2019-01-16T23:41:20.235Z,4.87
2019-01-16T23:44:07.826Z,4.62
2019-01-16T23:46:43.107Z,4.30
2019-01-16T23:49:16.486Z,4.65
2019-01-16T23:51:48.572Z,4.47
2019-01-16T23:54:36.419Z,4.33
2019-01-16T23:57:15.416Z,5.05
2019-01-16T23:59:51.293Z,4.15
